Time;durP1;ratioP1;P1;durP2;ratioP2;P2;SDS_P1;SDS_P2;PMS_P1;PMS_P2;Temp;Humidity;BMP_temperature;BMP_pressure;BME280_temperature;BME280_humidity;BME280_pressure;Samples;Min_cycle;Max_cycle;Signal;HPM_P1;HPM_P2
2021/01/07 00:02:09;;;;;;;8.60;5.80;;;;;;;-144.99;100.00;52562.25;5048070;28;20619;-78
2021/01/07 00:04:35;;;;;;;8.37;5.70;;;;;;;-144.99;100.00;52560.19;5030321;28;20676;-79
2021/01/07 00:07:02;;;;;;;6.80;5.17;;;;;;;-144.99;100.00;52574.47;5051130;28;20616;-78
2021/01/07 00:09:28;;;;;;;7.57;6.07;;;;;;;-144.99;100.00;52623.38;5041104;28;20736;-81
2021/01/07 00:11:56;;;;;;;7.37;5.60;;;;;;;-144.99;100.00;52586.69;5059242;28;20699;-77
2021/01/07 00:14:23;;;;;;;6.93;6.03;;;;;;;-144.99;100.00;52566.31;5049781;28;20664;-80
2021/01/07 00:16:50;;;;;;;5.47;4.37;;;;;;;-144.99;100.00;52558.16;5054309;28;20646;-79
2021/01/07 00:19:16;;;;;;;7.87;5.73;;;;;;;-144.99;100.00;52574.47;5045760;28;20747;-78
2021/01/07 00:21:44;;;;;;;6.57;5.60;;;;;;;-144.99;100.00;52584.66;5056933;28;20635;-77
2021/01/07 00:24:11;;;;;;;8.83;6.17;;;;;;;-144.99;100.00;52529.63;5049267;28;20659;-79
2021/01/07 00:26:37;;;;;;;7.97;6.60;;;;;;;-144.99;100.00;52570.38;5051481;28;20900;-78
2021/01/07 00:29:04;;;;;;;6.90;5.57;;;;;;;-144.99;100.00;52566.31;5050882;28;21485;-78
2021/01/07 00:31:30;;;;;;;7.13;5.30;;;;;;;-144.99;100.00;52600.97;5051674;28;20667;-78
2021/01/07 00:33:56;;;;;;;6.17;5.33;;;;;;;-144.99;100.00;52564.28;5048225;28;20718;-80
2021/01/07 00:36:23;;;;;;;6.90;5.30;;;;;;;-144.99;100.00;52541.84;5050956;28;20639;-78
2021/01/07 00:38:49;;;;;;;7.30;5.30;;;;;;;-144.99;100.00;52574.47;5052158;28;20745;-78
2021/01/07 00:41:18;;;;;;;7.57;5.53;;;;;;;-144.99;100.00;52556.13;5051270;28;20659;-78
2021/01/07 00:43:44;;;;;;;6.20;5.20;;;;;;;-144.99;100.00;52590.78;5053078;28;20639;-78
2021/01/07 00:46:10;;;;;;;7.13;4.77;;;;;;;-144.99;100.00;52582.63;5051721;28;20718;-78
2021/01/07 00:48:36;;;;;;;6.53;4.57;;;;;;;-144.99;100.00;52586.69;5050734;28;20734;-78
2021/01/07 00:51:03;;;;;;;7.17;5.43;;;;;;;-144.99;100.00;52594.84;5050562;28;20763;-77
2021/01/07 00:53:29;;;;;;;6.97;5.33;;;;;;;-144.99;100.00;52566.31;5053247;28;20658;-79
2021/01/07 00:55:55;;;;;;;6.50;4.60;;;;;;;-144.99;100.00;52578.53;5051952;28;20731;-77
2021/01/07 00:58:22;;;;;;;4.43;3.90;;;;;;;-144.99;100.00;52550.00;5053311;28;20993;-79
2021/01/07 01:00:49;;;;;;;5.07;4.07;;;;;;;-144.99;100.00;52586.69;5053703;28;20681;-78
2021/01/07 01:03:15;;;;;;;5.03;4.20;;;;;;;-144.99;100.00;52598.94;5054128;28;20720;-75
2021/01/07 01:05:41;;;;;;;6.43;4.53;;;;;;;-144.99;100.00;52578.53;5051037;28;21096;-78
2021/01/07 01:08:07;;;;;;;5.00;4.17;;;;;;;-144.99;100.00;52545.94;5052243;28;20647;-77
2021/01/07 01:10:34;;;;;;;5.50;4.20;;;;;;;-144.99;100.00;52574.47;5051191;28;20687;-77
2021/01/07 01:13:00;;;;;;;4.23;3.60;;;;;;;-144.99;100.00;52615.25;5052278;28;20675;-78
2021/01/07 01:15:27;;;;;;;4.90;3.97;;;;;;;-144.99;100.00;52562.25;5055224;28;21214;-79
2021/01/07 01:17:53;;;;;;;5.77;4.67;;;;;;;-144.99;100.00;52607.09;5051752;28;20667;-76
2021/01/07 01:20:19;;;;;;;6.30;4.37;;;;;;;-144.99;100.00;52570.38;5050336;28;21228;-78
2021/01/07 01:22:45;;;;;;;5.07;3.57;;;;;;;-144.99;100.00;52605.03;5049686;28;20655;-78
2021/01/07 01:25:13;;;;;;;5.23;3.70;;;;;;;-144.99;100.00;52607.09;5051426;28;20697;-77
2021/01/07 01:27:42;;;;;;;4.10;3.13;;;;;;;-144.99;100.00;52582.63;5050284;28;20650;-78
2021/01/07 01:30:10;;;;;;;3.73;2.70;;;;;;;-144.99;100.00;52543.91;5048487;28;20708;-78
2021/01/07 01:32:38;;;;;;;4.80;4.07;;;;;;;-144.99;100.00;52562.25;5049167;28;20654;-76
2021/01/07 01:35:05;;;;;;;6.50;5.37;;;;;;;-144.99;100.00;52615.25;5048659;28;21237;-77
2021/01/07 01:37:32;;;;;;;5.67;4.60;;;;;;;-144.99;100.00;52566.31;5047821;28;20716;-78
2021/01/07 01:39:58;;;;;;;3.97;3.27;;;;;;;-144.99;100.00;52570.38;5048391;28;21092;-79
2021/01/07 01:42:25;;;;;;;5.27;3.80;;;;;;;-144.99;100.00;52578.53;5049019;28;20722;-78
2021/01/07 01:44:51;;;;;;;5.53;4.03;;;;;;;-144.99;100.00;52566.31;5050494;28;20666;-79
2021/01/07 01:47:17;;;;;;;5.47;4.43;;;;;;;-144.99;100.00;52643.78;4700706;28;10000014;-78
2021/01/07 01:49:47;;;;;;;4.47;3.50;;;;;;;-144.99;100.00;52570.38;5048393;28;20633;-77
2021/01/07 01:52:15;;;;;;;4.97;4.07;;;;;;;-144.99;100.00;52576.50;5035930;28;21261;-76
2021/01/07 01:54:43;;;;;;;6.80;4.90;;;;;;;-144.99;100.00;52619.31;5049361;28;20873;-79
2021/01/07 01:57:12;;;;;;;5.90;4.57;;;;;;;-144.99;100.00;52613.19;5048813;28;20663;-78
2021/01/07 01:59:38;;;;;;;5.37;4.27;;;;;;;-144.99;100.00;52582.63;5049376;28;20734;-77
2021/01/07 02:02:06;;;;;;;5.77;4.37;;;;;;;-144.99;100.00;52598.94;5050008;28;21018;-76
2021/01/07 02:04:32;;;;;;;4.77;3.83;;;;;;;-144.99;100.00;52578.53;5048803;28;20735;-77
2021/01/07 02:07:02;;;;;;;6.40;5.03;;;;;;;-144.99;100.00;52570.38;5050905;28;20731;-76
2021/01/07 02:09:29;;;;;;;5.53;4.30;;;;;;;-144.99;100.00;52623.38;5050211;28;20638;-77
2021/01/07 02:11:57;;;;;;;7.00;5.47;;;;;;;-144.99;100.00;52615.25;5051594;28;20725;-77
2021/01/07 02:14:23;;;;;;;5.90;4.03;;;;;;;-144.99;100.00;52550.00;5050958;28;20655;-77
2021/01/07 02:16:50;;;;;;;5.20;4.10;;;;;;;-144.99;100.00;52566.31;5051895;28;21197;-77
2021/01/07 02:19:16;;;;;;;6.17;5.03;;;;;;;-144.99;100.00;52558.16;5049116;28;20731;-77
2021/01/07 02:21:43;;;;;;;4.90;4.17;;;;;;;-144.99;100.00;52558.16;5051314;28;20750;-76
2021/01/07 02:24:11;;;;;;;5.40;4.70;;;;;;;-144.99;100.00;52570.38;5050968;28;20860;-76
2021/01/07 02:26:37;;;;;;;5.30;4.07;;;;;;;-144.99;100.00;52578.53;5051379;28;21232;-76
2021/01/07 02:29:03;;;;;;;5.47;4.27;;;;;;;-144.99;100.00;52558.16;5051262;28;20663;-77
2021/01/07 02:31:29;;;;;;;5.43;4.80;;;;;;;-144.99;100.00;52590.78;5063871;28;20656;-75
2021/01/07 02:33:55;;;;;;;6.57;5.30;;;;;;;-144.99;100.00;52590.78;5068321;28;20660;-77
2021/01/07 02:36:22;;;;;;;6.17;4.43;;;;;;;-144.99;100.00;52627.47;5066943;28;20754;-78
2021/01/07 02:38:49;;;;;;;5.10;3.97;;;;;;;-144.99;100.00;52554.09;5065719;28;20635;-76
2021/01/07 02:41:15;;;;;;;6.33;5.23;;;;;;;-144.99;100.00;52594.84;5050366;28;21085;-75
2021/01/07 02:43:41;;;;;;;5.97;4.83;;;;;;;-144.99;100.00;52570.38;5049897;28;20682;-75
2021/01/07 02:46:08;;;;;;;5.10;4.10;;;;;;;-144.99;100.00;52590.78;5049529;28;20656;-74
2021/01/07 02:48:34;;;;;;;7.10;5.43;;;;;;;-144.99;100.00;52627.47;5048486;28;20723;-75
2021/01/07 02:51:00;;;;;;;4.97;4.43;;;;;;;-144.99;100.00;52550.00;5049667;28;20717;-76
2021/01/07 02:53:27;;;;;;;6.47;4.93;;;;;;;-144.99;100.00;52586.69;5050250;28;21263;-76
2021/01/07 02:55:54;;;;;;;6.83;3.87;;;;;;;-144.99;100.00;52566.31;5050276;28;20655;-76
2021/01/07 02:58:20;;;;;;;6.83;5.43;;;;;;;-144.99;100.00;52582.63;5049490;28;20638;-76
2021/01/07 03:00:46;;;;;;;6.67;5.73;;;;;;;-144.99;100.00;52560.19;5049915;28;20658;-77
2021/01/07 03:03:12;;;;;;;6.73;4.63;;;;;;;-144.99;100.00;52578.53;5049520;28;20776;-77
2021/01/07 03:05:38;;;;;;;6.03;4.97;;;;;;;-144.99;100.00;52541.84;5049327;28;20632;-77
2021/01/07 03:08:05;;;;;;;7.07;5.27;;;;;;;-144.99;100.00;52574.47;5050140;28;21200;-78
2021/01/07 03:10:32;;;;;;;7.20;5.10;;;;;;;-144.99;100.00;52554.09;5055144;28;20595;-79
2021/01/07 03:12:59;;;;;;;6.33;4.97;;;;;;;-144.99;100.00;52574.47;5062047;28;20656;-80
2021/01/07 03:15:25;;;;;;;6.43;4.73;;;;;;;-144.99;100.00;52562.25;5053800;28;20628;-77
2021/01/07 03:17:51;;;;;;;6.57;4.73;;;;;;;-144.99;100.00;52603.00;5050699;28;21243;-76
2021/01/07 03:20:17;;;;;;;7.63;5.67;;;;;;;-144.99;100.00;52611.16;5049456;28;20966;-77
2021/01/07 03:22:44;;;;;;;5.13;4.50;;;;;;;-144.99;100.00;52554.09;5050382;28;20623;-77
2021/01/07 03:25:11;;;;;;;5.33;4.40;;;;;;;-144.99;100.00;52586.69;5049856;28;20715;-79
2021/01/07 03:27:38;;;;;;;6.37;5.07;;;;;;;-144.99;100.00;52598.94;5049773;28;20871;-77
2021/01/07 03:30:07;;;;;;;5.33;3.97;;;;;;;-144.99;100.00;52558.16;5048991;28;21072;-77
2021/01/07 03:32:36;;;;;;;6.30;5.07;;;;;;;-144.99;100.00;52570.38;5049852;28;20754;-77
2021/01/07 03:35:03;;;;;;;6.67;5.00;;;;;;;-144.99;100.00;52609.13;5048229;28;20754;-78
2021/01/07 03:37:29;;;;;;;6.77;5.37;;;;;;;-144.99;100.00;52566.31;5049813;28;20635;-79
2021/01/07 03:39:55;;;;;;;6.00;4.57;;;;;;;-144.99;100.00;52594.84;5048948;28;20727;-77
2021/01/07 03:42:21;;;;;;;6.33;4.17;;;;;;;-144.99;100.00;52566.31;5049407;28;21219;-76
2021/01/07 03:44:48;;;;;;;6.17;4.27;;;;;;;-144.99;100.00;52558.16;5048898;28;20736;-77
2021/01/07 03:47:15;;;;;;;6.50;4.60;;;;;;;-144.99;100.00;52598.94;5050128;28;20654;-78
2021/01/07 03:49:42;;;;;;;5.37;4.10;;;;;;;-144.99;100.00;52586.69;5048320;28;21130;-77
2021/01/07 03:52:08;;;;;;;5.00;3.90;;;;;;;-144.99;100.00;52586.69;5057697;28;20656;-78
2021/01/07 03:54:34;;;;;;;6.50;4.80;;;;;;;-144.99;100.00;52586.69;5058157;28;20648;-78
2021/01/07 03:57:00;;;;;;;5.80;4.03;;;;;;;-144.99;100.00;52570.38;5055873;28;20636;-78
2021/01/07 03:59:26;;;;;;;6.37;4.03;;;;;;;-144.99;100.00;52598.94;5055589;28;20631;-78
2021/01/07 04:01:53;;;;;;;7.47;4.40;;;;;;;-144.99;100.00;52586.69;5056088;28;20616;-76
2021/01/07 04:04:19;;;;;;;6.40;4.00;;;;;;;-144.99;100.00;52572.44;5048403;28;20714;-77
2021/01/07 04:06:46;;;;;;;4.30;3.77;;;;;;;-144.99;100.00;52615.25;5049552;28;20693;-76
2021/01/07 04:09:12;;;;;;;5.70;4.03;;;;;;;-144.99;100.00;52558.16;5048755;28;20714;-77
2021/01/07 04:11:38;;;;;;;5.90;4.67;;;;;;;-144.99;100.00;52590.78;5049087;28;20683;-76
2021/01/07 04:14:04;;;;;;;5.77;4.03;;;;;;;-144.99;100.00;52627.47;5048158;28;21283;-76
2021/01/07 04:16:30;;;;;;;4.43;3.17;;;;;;;-144.99;100.00;52562.25;5048732;28;20690;-75
2021/01/07 04:18:57;;;;;;;4.23;3.60;;;;;;;-144.99;100.00;52529.63;5046393;28;20666;-77
2021/01/07 04:21:24;;;;;;;4.20;2.80;;;;;;;-144.99;100.00;52578.53;5048979;28;20624;-77
2021/01/07 04:23:50;;;;;;;5.67;4.43;;;;;;;-144.99;100.00;52623.38;5049625;28;21080;-76
2021/01/07 04:26:17;;;;;;;6.07;4.40;;;;;;;-144.99;100.00;52637.66;5049065;28;20620;-76
2021/01/07 04:28:43;;;;;;;6.10;4.43;;;;;;;-144.99;100.00;52533.69;5054392;28;20703;-77
2021/01/07 04:31:09;;;;;;;7.17;4.50;;;;;;;-144.99;100.00;52578.53;5058081;28;21212;-78
2021/01/07 04:33:36;;;;;;;6.40;3.87;;;;;;;-144.99;100.00;52603.00;5059078;28;20690;-77
2021/01/07 04:36:02;;;;;;;5.40;3.50;;;;;;;-144.99;100.00;52582.63;5050544;28;20988;-77
2021/01/07 04:38:29;;;;;;;7.07;5.67;;;;;;;-144.99;100.00;52564.28;5050120;28;20718;-77
2021/01/07 04:40:55;;;;;;;7.03;3.83;;;;;;;-144.99;100.00;52578.53;5049611;28;20728;-77
2021/01/07 04:43:21;;;;;;;5.07;3.63;;;;;;;-144.99;100.00;52537.78;5049815;28;20651;-77
2021/01/07 04:45:47;;;;;;;5.93;4.30;;;;;;;-144.99;100.00;52578.53;5050462;28;21209;-77
2021/01/07 04:48:14;;;;;;;6.53;5.07;;;;;;;-144.99;100.00;52554.09;5048810;28;20659;-78
2021/01/07 04:50:40;;;;;;;6.63;4.67;;;;;;;-144.99;100.00;52590.78;5049289;28;20666;-76
2021/01/07 04:53:06;;;;;;;5.93;4.70;;;;;;;-144.99;100.00;52572.44;5049040;28;20647;-77
2021/01/07 04:55:34;;;;;;;7.93;6.53;;;;;;;-144.99;100.00;52621.34;5050712;28;20647;-78
2021/01/07 04:58:00;;;;;;;6.67;5.60;;;;;;;-144.99;100.00;52570.38;5053176;28;20667;-78
2021/01/07 05:00:29;;;;;;;6.50;4.83;;;;;;;-144.99;100.00;52554.09;5052936;28;21033;-78
2021/01/07 05:02:56;;;;;;;7.63;5.50;;;;;;;-144.99;100.00;52619.31;5053304;28;20619;-78
2021/01/07 05:05:22;;;;;;;7.47;6.10;;;;;;;-144.99;100.00;52586.69;5055011;28;20632;-78
2021/01/07 05:07:49;;;;;;;7.33;5.50;;;;;;;-144.99;100.00;52574.47;5059153;28;20619;-80
2021/01/07 05:10:15;;;;;;;8.03;5.63;;;;;;;-144.99;100.00;52611.16;5057490;28;20632;-79
2021/01/07 05:12:42;;;;;;;7.23;5.07;;;;;;;-144.99;100.00;52603.00;5057488;28;21019;-81
2021/01/07 05:15:10;;;;;;;7.13;5.13;;;;;;;-144.99;100.00;52574.47;5055480;28;20647;-80
2021/01/07 05:17:36;;;;;;;7.37;5.33;;;;;;;-144.99;100.00;52568.34;5055193;28;20628;-81
2021/01/07 05:20:09;;;;;;;8.17;5.87;;;;;;;-144.99;100.00;52570.38;5054851;28;20651;-78
2021/01/07 05:22:36;;;;;;;6.37;4.73;;;;;;;-144.99;100.00;52611.16;5057697;28;20629;-83
2021/01/07 05:25:02;;;;;;;7.00;5.23;;;;;;;-144.99;100.00;52582.63;5057505;28;20659;-80
2021/01/07 05:27:29;;;;;;;8.13;5.27;;;;;;;-144.99;100.00;52594.84;5055325;28;20627;-79
2021/01/07 05:30:01;;;;;;;7.13;5.77;;;;;;;-144.99;100.00;52611.16;5060635;28;20710;-82
2021/01/07 05:32:34;;;;;;;6.43;5.17;;;;;;;-144.99;100.00;52623.38;5052946;28;20648;-79
2021/01/07 05:35:00;;;;;;;8.30;5.50;;;;;;;-144.99;100.00;52580.59;5054175;28;20780;-80
2021/01/07 05:37:27;;;;;;;7.30;6.00;;;;;;;-144.99;100.00;52554.09;5053779;28;21252;-78
2021/01/07 05:39:54;;;;;;;9.77;6.53;;;;;;;-144.99;100.00;52594.84;5053310;28;21060;-79
2021/01/07 05:42:20;;;;;;;7.87;5.90;;;;;;;-144.99;100.00;52558.16;5053579;28;20659;-78
2021/01/07 05:44:47;;;;;;;9.40;6.70;;;;;;;-144.99;100.00;52586.69;5054010;28;20659;-77
2021/01/07 05:47:27;;;;;;;7.90;6.13;;;;;;;-144.99;100.00;52550.00;5053978;28;20663;-79
2021/01/07 05:49:54;;;;;;;8.23;5.77;;;;;;;-144.99;100.00;52552.03;5053176;28;20639;-80
2021/01/07 05:52:22;;;;;;;7.20;5.47;;;;;;;-144.99;100.00;52558.16;5053671;28;20660;-80
2021/01/07 05:54:48;;;;;;;7.23;5.27;;;;;;;-144.99;100.00;52576.50;5055188;28;20691;-79
2021/01/07 05:57:17;;;;;;;8.10;6.50;;;;;;;-144.99;100.00;52576.50;5054790;28;20642;-79
2021/01/07 05:59:44;;;;;;;8.90;5.87;;;;;;;-144.99;100.00;52558.16;5054599;28;20616;-81
2021/01/07 06:02:16;;;;;;;8.07;6.67;;;;;;;-144.99;100.00;52586.69;5056735;28;20720;-80
2021/01/07 06:04:47;;;;;;;7.20;5.03;;;;;;;-144.99;100.00;52584.66;5056906;28;20658;-80
2021/01/07 06:07:15;;;;;;;7.47;5.50;;;;;;;-144.99;100.00;52566.31;5061009;28;20612;-84
2021/01/07 06:09:44;;;;;;;6.43;4.83;;;;;;;-144.99;100.00;52586.69;5060097;28;20628;-80
2021/01/07 06:12:12;;;;;;;6.23;4.37;;;;;;;-144.99;100.00;52578.53;5061687;28;20710;-80
2021/01/07 06:14:41;;;;;;;8.33;4.73;;;;;;;-144.99;100.00;52566.31;5056275;28;20636;-82
2021/01/07 06:17:07;;;;;;;7.57;5.57;;;;;;;-144.99;100.00;52572.44;5055056;28;20838;-80
2021/01/07 06:19:36;;;;;;;7.47;4.77;;;;;;;-144.99;100.00;52603.00;5053527;28;20723;-83
2021/01/07 06:22:08;;;;;;;8.27;5.33;;;;;;;-144.99;100.00;52586.69;5069021;28;20592;-82
2021/01/07 06:24:37;;;;;;;8.13;4.83;;;;;;;-144.99;100.00;52568.34;5076378;28;20621;-83
2021/01/07 06:27:21;;;;;;;7.93;5.27;;;;;;;-144.99;100.00;52570.38;5069655;28;20651;-79
2021/01/07 06:29:47;;;;;;;7.93;5.60;;;;;;;-144.99;100.00;52617.28;5071912;28;20615;-81
2021/01/07 06:32:14;;;;;;;8.53;4.53;;;;;;;-144.99;100.00;52594.84;5070618;28;20704;-79
2021/01/07 06:34:44;;;;;;;6.83;4.73;;;;;;;-144.99;100.00;52564.28;5066188;28;20764;-81
2021/01/07 06:37:11;;;;;;;5.70;4.13;;;;;;;-144.99;100.00;52598.94;5059901;28;20616;-79
2021/01/07 06:39:44;;;;;;;6.50;4.80;;;;;;;-144.99;100.00;52570.38;5050943;28;20664;-78
2021/01/07 06:42:18;;;;;;;8.70;4.20;;;;;;;-144.99;100.00;52556.13;5052740;28;20643;-78
2021/01/07 06:44:45;;;;;;;6.73;4.57;;;;;;;-144.99;100.00;52545.94;5051478;28;20651;-79
2021/01/07 06:47:18;;;;;;;7.10;5.40;;;;;;;-144.99;100.00;52596.88;5051620;28;21165;-77
2021/01/07 06:49:45;;;;;;;6.70;5.50;;;;;;;-144.99;100.00;52603.00;5049730;28;20727;-78
2021/01/07 06:52:12;;;;;;;7.93;5.27;;;;;;;-144.99;100.00;52594.84;5054263;28;20667;-78
2021/01/07 06:54:41;;;;;;;7.83;5.53;;;;;;;-144.99;100.00;52621.34;5053560;28;21263;-78
2021/01/07 06:57:11;;;;;;;6.80;4.97;;;;;;;-144.99;100.00;52570.38;5052288;28;20620;-79
2021/01/07 06:59:37;;;;;;;8.37;5.47;;;;;;;-144.99;100.00;52545.94;5050959;28;20688;-80
2021/01/07 07:02:06;;;;;;;8.13;5.67;;;;;;;-144.99;100.00;52578.53;5053333;28;20631;-81
2021/01/07 07:04:33;;;;;;;7.57;5.83;;;;;;;-144.99;100.00;52598.94;5050660;28;20647;-78
2021/01/07 07:07:04;;;;;;;8.27;6.53;;;;;;;-144.99;100.00;52558.16;5055488;28;20627;-81
2021/01/07 07:09:41;;;;;;;7.60;5.40;;;;;;;-144.99;100.00;52570.38;5065691;28;20667;-80
2021/01/07 07:12:08;;;;;;;7.97;5.13;;;;;;;-144.99;100.00;52570.38;5060808;28;20670;-81
2021/01/07 07:14:34;;;;;;;8.97;6.50;;;;;;;-144.99;100.00;52578.53;5055849;28;20722;-80
2021/01/07 07:17:08;;;;;;;8.03;6.33;;;;;;;-144.99;100.00;52582.63;5053326;28;20677;-82
2021/01/07 07:19:38;;;;;;;7.57;5.77;;;;;;;-144.99;100.00;52582.63;5052070;28;20652;-81
2021/01/07 07:22:08;;;;;;;7.00;4.90;;;;;;;-144.99;100.00;52580.59;5053957;28;20600;-82
2021/01/07 07:24:36;;;;;;;8.43;5.77;;;;;;;-144.99;100.00;52552.03;5054405;28;20708;-82
2021/01/07 07:27:08;;;;;;;8.13;6.23;;;;;;;-144.99;100.00;52621.34;5056346;28;20631;-82
2021/01/07 07:29:35;;;;;;;8.93;6.20;;;;;;;-144.99;100.00;52578.53;5057700;28;20616;-79
2021/01/07 07:32:20;;;;;;;8.13;6.43;;;;;;;-144.99;100.00;52611.16;5051908;28;20659;-78
2021/01/07 07:34:48;;;;;;;9.03;6.17;;;;;;;-144.99;100.00;52558.16;5040780;28;20659;-80
2021/01/07 07:37:18;;;;;;;8.63;6.27;;;;;;;-144.99;100.00;52529.63;5051752;28;20676;-79
2021/01/07 07:39:48;;;;;;;7.17;4.80;;;;;;;-144.99;100.00;52598.94;5052298;28;20624;-78
2021/01/07 07:42:16;;;;;;;8.37;6.17;;;;;;;-144.99;100.00;52586.69;5052156;28;20715;-79
2021/01/07 07:44:43;;;;;;;9.17;6.33;;;;;;;-144.99;100.00;52570.38;5052749;28;21021;-79
2021/01/07 07:47:10;;;;;;;9.53;6.97;;;;;;;-144.99;100.00;52586.69;5053517;28;20719;-80
2021/01/07 07:49:36;;;;;;;10.47;6.10;;;;;;;-144.99;100.00;52550.00;5051408;28;20647;-78
2021/01/07 07:52:02;;;;;;;8.63;5.77;;;;;;;-144.99;100.00;52527.59;5051978;28;21235;-82
2021/01/07 07:54:29;;;;;;;8.37;5.83;;;;;;;-144.99;100.00;52598.94;5054281;28;20935;-81
2021/01/07 07:56:59;;;;;;;8.33;6.27;;;;;;;-144.99;100.00;52541.84;5053685;28;20620;-80
2021/01/07 07:59:27;;;;;;;14.37;7.10;;;;;;;-144.99;100.00;52611.16;5052465;28;20620;-79
2021/01/07 08:01:55;;;;;;;9.50;5.80;;;;;;;-144.99;100.00;52596.88;5051982;28;20611;-79
2021/01/07 08:04:23;;;;;;;8.20;5.63;;;;;;;-144.99;100.00;52572.44;5053505;28;20660;-79
2021/01/07 08:06:51;;;;;;;8.07;4.97;;;;;;;-144.99;100.00;52570.38;5052669;28;20616;-79
2021/01/07 08:09:19;;;;;;;8.43;6.10;;;;;;;-144.99;100.00;52570.38;5053351;28;20609;-79
2021/01/07 08:11:48;;;;;;;9.03;5.93;;;;;;;-144.99;100.00;52576.50;5053547;28;20733;-80
2021/01/07 08:14:33;;;;;;;7.53;5.53;;;;;;;-144.99;100.00;52635.63;5052567;28;20667;-79
2021/01/07 08:17:01;;;;;;;6.43;4.73;;;;;;;-144.99;100.00;52586.69;5054409;28;20669;-80
2021/01/07 08:19:32;;;;;;;9.97;7.07;;;;;;;-144.99;100.00;52537.78;5053663;28;20723;-80
2021/01/07 08:21:58;;;;;;;8.93;4.97;;;;;;;-144.99;100.00;52582.63;5055668;28;21192;-77
2021/01/07 08:24:25;;;;;;;7.37;4.83;;;;;;;-144.99;100.00;52582.63;5056509;28;20647;-79
2021/01/07 08:27:10;;;;;;;7.57;6.07;;;;;;;-144.99;100.00;52627.47;5053314;28;20611;-78
2021/01/07 08:29:40;;;;;;;10.27;7.20;;;;;;;-144.99;100.00;52554.09;5043871;28;20651;-78
2021/01/07 08:32:10;;;;;;;8.27;4.97;;;;;;;-144.99;100.00;52611.16;5053745;28;20675;-77
2021/01/07 08:34:37;;;;;;;10.03;6.57;;;;;;;-144.99;100.00;52537.78;5051976;28;21048;-77
2021/01/07 08:37:11;;;;;;;9.20;6.53;;;;;;;-144.99;100.00;52578.53;5052934;28;20679;-76
2021/01/07 08:39:38;;;;;;;9.50;5.90;;;;;;;-144.99;100.00;52572.44;5053981;28;20635;-76
2021/01/07 08:42:06;;;;;;;8.30;6.33;;;;;;;-144.99;100.00;52582.63;5053409;28;20647;-76
2021/01/07 08:44:32;;;;;;;9.83;6.10;;;;;;;-144.99;100.00;52590.78;5055152;28;20738;-80
2021/01/07 08:46:59;;;;;;;9.10;6.60;;;;;;;-144.99;100.00;52594.84;5055555;28;20623;-79
2021/01/07 08:49:25;;;;;;;10.60;7.07;;;;;;;-144.99;100.00;52572.44;5053848;28;20608;-78
2021/01/07 08:51:53;;;;;;;9.67;6.13;;;;;;;-144.99;100.00;52562.25;5056616;28;20659;-79
2021/01/07 08:54:21;;;;;;;11.30;7.07;;;;;;;-144.99;100.00;52590.78;5056595;28;20667;-78
2021/01/07 08:56:48;;;;;;;13.77;8.87;;;;;;;-144.99;100.00;52564.28;5055800;28;20636;-79
2021/01/07 08:59:22;;;;;;;11.30;7.77;;;;;;;-144.99;100.00;52562.25;5054862;28;20631;-77
2021/01/07 09:01:52;;;;;;;10.93;7.20;;;;;;;-144.99;100.00;52594.84;5054879;28;21182;-78
2021/01/07 09:04:31;;;;;;;12.23;9.27;;;;;;;-144.99;100.00;52566.31;5056434;28;20687;-78
2021/01/07 09:06:59;;;;;;;10.13;7.43;;;;;;;-144.99;100.00;52550.00;5052274;28;20627;-79
2021/01/07 09:09:26;;;;;;;10.17;7.13;;;;;;;-144.99;100.00;52603.00;5059560;28;20604;-79
2021/01/07 09:12:08;;;;;;;11.47;8.27;;;;;;;-144.99;100.00;52582.63;5059809;28;20655;-79
2021/01/07 09:14:44;;;;;;;12.10;8.77;;;;;;;-144.99;100.00;52600.97;5059242;28;20705;-77
2021/01/07 09:17:10;;;;;;;11.30;8.73;;;;;;;-144.99;100.00;52574.47;5064189;28;20622;-78
2021/01/07 09:19:37;;;;;;;12.20;8.93;;;;;;;-144.99;100.00;52556.13;5072047;28;20616;-78
2021/01/07 09:22:03;;;;;;;11.83;8.33;;;;;;;-144.99;100.00;52572.44;5073273;28;20603;-76
2021/01/07 09:24:34;;;;;;;12.73;8.07;;;;;;;-144.99;100.00;52515.34;5068872;28;20666;-78
2021/01/07 09:27:08;;;;;;;11.97;8.00;;;;;;;-144.99;100.00;52582.63;5066383;28;20615;-77
2021/01/07 09:29:34;;;;;;;9.63;7.70;;;;;;;-144.99;100.00;52570.38;5065372;28;21142;-77
2021/01/07 09:32:01;;;;;;;15.83;8.03;;;;;;;-144.99;100.00;52580.59;5074458;28;20648;-78
2021/01/07 09:34:30;;;;;;;10.93;8.27;;;;;;;-144.99;100.00;52574.47;5069645;28;20750;-78
2021/01/07 09:37:03;;;;;;;12.17;7.43;;;;;;;-144.99;100.00;52566.31;5062650;28;20721;-74
2021/01/07 09:39:29;;;;;;;11.73;8.77;;;;;;;-144.99;100.00;52570.38;5060656;28;20711;-75
2021/01/07 09:41:55;;;;;;;11.67;7.80;;;;;;;-144.99;100.00;52580.59;5057799;28;20654;-76
2021/01/07 09:44:21;;;;;;;9.57;6.83;;;;;;;-144.99;100.00;52578.53;5058120;28;20990;-78
2021/01/07 09:46:51;;;;;;;11.37;7.70;;;;;;;-144.99;100.00;52572.44;5063102;28;20614;-80
2021/01/07 09:49:17;;;;;;;10.13;7.97;;;;;;;-144.99;100.00;52574.47;5058901;28;20623;-78
2021/01/07 09:51:44;;;;;;;11.10;7.77;;;;;;;-144.99;100.00;52586.69;5059190;28;20655;-80
2021/01/07 09:54:11;;;;;;;12.73;8.87;;;;;;;-144.99;100.00;52576.50;5057474;28;20705;-78
2021/01/07 09:56:37;;;;;;;12.23;9.53;;;;;;;-144.99;100.00;52554.09;5058498;28;20634;-78
2021/01/07 09:59:03;;;;;;;13.73;10.77;;;;;;;-144.99;100.00;52529.63;5056372;28;20616;-78
2021/01/07 10:01:29;;;;;;;12.00;8.77;;;;;;;-144.99;100.00;52570.38;5056181;28;21191;-79
2021/01/07 10:03:56;;;;;;;13.80;8.90;;;;;;;-144.99;100.00;52582.63;5055695;28;20648;-79
2021/01/07 10:06:22;;;;;;;13.03;8.23;;;;;;;-144.99;100.00;52556.13;5057262;28;20632;-79
2021/01/07 10:08:48;;;;;;;11.97;8.07;;;;;;;-144.99;100.00;52607.09;5057752;28;20629;-77
2021/01/07 10:11:15;;;;;;;12.67;9.03;;;;;;;-144.99;100.00;52570.38;5057221;28;20663;-79
2021/01/07 10:13:42;;;;;;;12.50;9.37;;;;;;;-144.99;100.00;52558.16;5056151;28;20670;-78
2021/01/07 10:16:11;;;;;;;11.90;7.23;;;;;;;-144.99;100.00;52527.59;5055510;28;20627;-79
2021/01/07 10:18:38;;;;;;;14.50;7.07;;;;;;;-144.99;100.00;52560.19;5046315;28;21001;-79
2021/01/07 10:21:08;;;;;;;11.97;7.40;;;;;;;-144.99;100.00;52607.09;5055561;28;20911;-79
2021/01/07 10:23:36;;;;;;;11.27;7.80;;;;;;;-144.99;100.00;52545.94;5057812;28;20666;-79
2021/01/07 10:26:03;;;;;;;10.67;7.70;;;;;;;-144.99;100.00;52578.53;5057729;28;20995;-79
2021/01/07 10:28:30;;;;;;;9.13;6.53;;;;;;;-144.99;100.00;52582.63;5056064;28;20620;-78
2021/01/07 10:30:56;;;;;;;11.90;7.83;;;;;;;-144.99;100.00;52566.31;5057181;28;20674;-80
2021/01/07 10:33:22;;;;;;;12.13;9.37;;;;;;;-144.99;100.00;52554.09;5054442;28;20675;-77
2021/01/07 10:35:49;;;;;;;11.27;6.77;;;;;;;-144.99;100.00;52603.00;5054871;28;21070;-79
2021/01/07 10:38:22;;;;;;;9.20;7.37;;;;;;;-144.99;100.00;52537.78;5055517;28;20684;-79
2021/01/07 10:40:48;;;;;;;8.90;6.83;;;;;;;-144.99;100.00;52558.16;5055579;28;20742;-79
2021/01/07 10:43:14;;;;;;;9.30;6.77;;;;;;;-144.99;100.00;52554.09;5055554;28;20654;-79
2021/01/07 10:45:42;;;;;;;12.53;8.13;;;;;;;-144.99;100.00;52554.09;5055532;28;20619;-79
2021/01/07 10:48:13;;;;;;;11.07;9.20;;;;;;;-144.99;100.00;52550.00;5055909;28;20624;-77
2021/01/07 10:50:41;;;;;;;11.93;8.30;;;;;;;-144.99;100.00;52517.41;5040830;28;20608;-79
2021/01/07 10:53:23;;;;;;;10.90;8.10;;;;;;;-144.99;100.00;52582.63;5056055;28;20671;-78
2021/01/07 10:55:54;;;;;;;12.93;9.13;;;;;;;-144.99;100.00;52550.00;5054146;28;21174;-78
2021/01/07 10:58:49;;;;;;;15.17;8.90;;;;;;;-144.99;100.00;52594.84;5054322;28;20632;-79
2021/01/07 11:01:33;;;;;;;14.77;9.47;;;;;;;-144.99;100.00;52594.84;5054328;28;20646;-80
2021/01/07 11:04:14;;;;;;;14.73;10.10;;;;;;;-144.99;100.00;52525.56;5052509;28;20644;-77
2021/01/07 11:06:49;;;;;;;15.57;10.43;;;;;;;-144.99;100.00;52570.38;5047681;28;20635;-78
2021/01/07 11:09:18;;;;;;;12.87;9.90;;;;;;;-144.99;100.00;52558.16;5052774;28;20743;-76
2021/01/07 11:11:50;;;;;;;13.00;9.73;;;;;;;-144.99;100.00;52590.78;5054590;28;20656;-79